sensor_id;sensor_type;location;lat;lon;timestamp;P1;durP1;ratioP1;P2;durP2;ratioP2
75655;SDS011;64252;51.094;13.714;2024-03-23T00:52:56;13.90;;;6.25;;
75655;SDS011;64252;51.094;13.714;2024-03-23T00:55:22;12.88;;;6.85;;
75655;SDS011;64252;51.094;13.714;2024-03-23T00:57:48;12.32;;;7.05;;
75655;SDS011;64252;51.094;13.714;2024-03-23T01:00:13;15.50;;;7.10;;
75655;SDS011;64252;51.094;13.714;2024-03-23T01:02:40;14.43;;;7.55;;
75655;SDS011;64252;51.094;13.714;2024-03-23T01:05:05;18.10;;;8.57;;
75655;SDS011;64252;51.094;13.714;2024-03-23T01:07:31;15.75;;;7.03;;
75655;SDS011;64252;51.094;13.714;2024-03-23T01:09:56;12.98;;;6.85;;
75655;SDS011;64252;51.094;13.714;2024-03-23T01:12:22;13.32;;;5.97;;
75655;SDS011;64252;51.094;13.714;2024-03-23T01:14:48;14.25;;;7.25;;
75655;SDS011;64252;51.094;13.714;2024-03-23T01:17:14;15.40;;;7.57;;
75655;SDS011;64252;51.094;13.714;2024-03-23T01:19:39;14.73;;;7.60;;
75655;SDS011;64252;51.094;13.714;2024-03-23T01:22:07;16.73;;;7.63;;
75655;SDS011;64252;51.094;13.714;2024-03-23T01:24:32;16.95;;;7.55;;
75655;SDS011;64252;51.094;13.714;2024-03-23T01:26:58;15.95;;;8.13;;
75655;SDS011;64252;51.094;13.714;2024-03-23T01:29:23;12.30;;;7.13;;
75655;SDS011;64252;51.094;13.714;2024-03-23T01:31:49;15.10;;;7.35;;
75655;SDS011;64252;51.094;13.714;2024-03-23T01:34:14;18.30;;;9.27;;
75655;SDS011;64252;51.094;13.714;2024-03-23T01:36:40;19.08;;;8.60;;
75655;SDS011;64252;51.094;13.714;2024-03-23T01:39:05;16.63;;;8.15;;
75655;SDS011;64252;51.094;13.714;2024-03-23T01:41:34;20.35;;;9.63;;
75655;SDS011;64252;51.094;13.714;2024-03-23T01:44:03;20.60;;;9.48;;
75655;SDS011;64252;51.094;13.714;2024-03-23T01:46:32;18.98;;;9.57;;
75655;SDS011;64252;51.094;13.714;2024-03-23T01:48:58;17.98;;;9.07;;
75655;SDS011;64252;51.094;13.714;2024-03-23T01:51:24;18.80;;;8.45;;
75655;SDS011;64252;51.094;13.714;2024-03-23T01:53:51;15.90;;;8.57;;
75655;SDS011;64252;51.094;13.714;2024-03-23T01:56:19;18.67;;;8.85;;
75655;SDS011;64252;51.094;13.714;2024-03-23T01:58:45;15.48;;;7.78;;
75655;SDS011;64252;51.094;13.714;2024-03-23T02:01:11;14.48;;;8.30;;
75655;SDS011;64252;51.094;13.714;2024-03-23T02:03:37;17.48;;;8.30;;
75655;SDS011;64252;51.094;13.714;2024-03-23T02:06:02;16.85;;;8.30;;
75655;SDS011;64252;51.094;13.714;2024-03-23T02:08:30;15.80;;;8.52;;
75655;SDS011;64252;51.094;13.714;2024-03-23T02:10:59;17.10;;;7.65;;
75655;SDS011;64252;51.094;13.714;2024-03-23T02:13:25;16.52;;;7.43;;
75655;SDS011;64252;51.094;13.714;2024-03-23T02:15:50;14.88;;;7.45;;
75655;SDS011;64252;51.094;13.714;2024-03-23T02:18:16;16.90;;;8.85;;
75655;SDS011;64252;51.094;13.714;2024-03-23T02:20:41;15.45;;;8.40;;
75655;SDS011;64252;51.094;13.714;2024-03-23T02:23:16;14.52;;;7.95;;
75655;SDS011;64252;51.094;13.714;2024-03-23T02:25:45;16.85;;;8.15;;
75655;SDS011;64252;51.094;13.714;2024-03-23T02:28:11;14.20;;;7.32;;
75655;SDS011;64252;51.094;13.714;2024-03-23T02:30:37;13.60;;;7.68;;
75655;SDS011;64252;51.094;13.714;2024-03-23T02:33:03;14.55;;;7.72;;
75655;SDS011;64252;51.094;13.714;2024-03-23T02:35:29;14.82;;;8.05;;
75655;SDS011;64252;51.094;13.714;2024-03-23T02:37:55;14.90;;;7.50;;
75655;SDS011;64252;51.094;13.714;2024-03-23T02:40:22;15.98;;;8.30;;
75655;SDS011;64252;51.094;13.714;2024-03-23T02:42:49;16.80;;;8.68;;
75655;SDS011;64252;51.094;13.714;2024-03-23T02:45:14;14.98;;;8.55;;
75655;SDS011;64252;51.094;13.714;2024-03-23T02:47:40;16.55;;;8.32;;
75655;SDS011;64252;51.094;13.714;2024-03-23T02:50:05;17.23;;;8.48;;
75655;SDS011;64252;51.094;13.714;2024-03-23T02:52:31;14.75;;;7.97;;
75655;SDS011;64252;51.094;13.714;2024-03-23T02:54:57;18.88;;;9.02;;
75655;SDS011;64252;51.094;13.714;2024-03-23T02:57:23;14.98;;;8.10;;
75655;SDS011;64252;51.094;13.714;2024-03-23T02:59:49;17.80;;;8.80;;
75655;SDS011;64252;51.094;13.714;2024-03-23T03:02:15;14.98;;;8.10;;
75655;SDS011;64252;51.094;13.714;2024-03-23T03:04:41;15.48;;;8.00;;
75655;SDS011;64252;51.094;13.714;2024-03-23T03:07:06;14.13;;;8.55;;
75655;SDS011;64252;51.094;13.714;2024-03-23T03:09:32;17.95;;;8.80;;
75655;SDS011;64252;51.094;13.714;2024-03-23T03:12:01;18.58;;;9.00;;
75655;SDS011;64252;51.094;13.714;2024-03-23T03:14:28;18.92;;;10.20;;
75655;SDS011;64252;51.094;13.714;2024-03-23T03:16:54;16.92;;;9.73;;
75655;SDS011;64252;51.094;13.714;2024-03-23T03:19:19;17.75;;;9.20;;
75655;SDS011;64252;51.094;13.714;2024-03-23T03:21:45;17.35;;;9.40;;
75655;SDS011;64252;51.094;13.714;2024-03-23T03:24:11;17.60;;;8.20;;
75655;SDS011;64252;51.094;13.714;2024-03-23T03:26:36;17.27;;;9.77;;
75655;SDS011;64252;51.094;13.714;2024-03-23T03:29:05;19.25;;;9.68;;
75655;SDS011;64252;51.094;13.714;2024-03-23T03:31:31;20.30;;;9.73;;
75655;SDS011;64252;51.094;13.714;2024-03-23T03:33:56;21.20;;;10.63;;
75655;SDS011;64252;51.094;13.714;2024-03-23T03:36:22;19.65;;;10.50;;
75655;SDS011;64252;51.094;13.714;2024-03-23T03:38:47;20.63;;;10.07;;
75655;SDS011;64252;51.094;13.714;2024-03-23T03:41:13;22.13;;;10.75;;
75655;SDS011;64252;51.094;13.714;2024-03-23T03:43:38;19.58;;;10.30;;
75655;SDS011;64252;51.094;13.714;2024-03-23T03:46:04;19.90;;;10.70;;
75655;SDS011;64252;51.094;13.714;2024-03-23T03:48:30;19.58;;;10.18;;
75655;SDS011;64252;51.094;13.714;2024-03-23T03:50:55;19.27;;;9.20;;
75655;SDS011;64252;51.094;13.714;2024-03-23T03:53:21;17.10;;;9.55;;
75655;SDS011;64252;51.094;13.714;2024-03-23T03:55:46;19.73;;;10.23;;
75655;SDS011;64252;51.094;13.714;2024-03-23T03:58:12;17.92;;;8.65;;
75655;SDS011;64252;51.094;13.714;2024-03-23T04:00:37;18.15;;;8.43;;
75655;SDS011;64252;51.094;13.714;2024-03-23T04:03:03;21.50;;;9.80;;
75655;SDS011;64252;51.094;13.714;2024-03-23T04:05:29;19.58;;;10.52;;
75655;SDS011;64252;51.094;13.714;2024-03-23T04:10:36;19.00;;;9.73;;
75655;SDS011;64252;51.094;13.714;2024-03-23T04:13:10;21.67;;;10.60;;
75655;SDS011;64252;51.094;13.714;2024-03-23T04:15:39;23.20;;;11.10;;
75655;SDS011;64252;51.094;13.714;2024-03-23T04:18:05;20.65;;;10.20;;
75655;SDS011;64252;51.094;13.714;2024-03-23T04:20:30;22.08;;;11.70;;
75655;SDS011;64252;51.094;13.714;2024-03-23T04:22:56;23.50;;;12.05;;
75655;SDS011;64252;51.094;13.714;2024-03-23T04:25:21;21.73;;;11.23;;
75655;SDS011;64252;51.094;13.714;2024-03-23T04:27:48;28.45;;;12.32;;
75655;SDS011;64252;51.094;13.714;2024-03-23T04:30:13;23.52;;;12.25;;
75655;SDS011;64252;51.094;13.714;2024-03-23T04:32:39;23.10;;;12.25;;
75655;SDS011;64252;51.094;13.714;2024-03-23T04:35:05;21.88;;;11.50;;
75655;SDS011;64252;51.094;13.714;2024-03-23T04:37:31;22.90;;;12.18;;
75655;SDS011;64252;51.094;13.714;2024-03-23T04:39:59;25.33;;;12.35;;
75655;SDS011;64252;51.094;13.714;2024-03-23T04:42:25;26.08;;;12.38;;
75655;SDS011;64252;51.094;13.714;2024-03-23T04:44:51;23.73;;;11.90;;
75655;SDS011;64252;51.094;13.714;2024-03-23T04:47:16;23.63;;;12.85;;
75655;SDS011;64252;51.094;13.714;2024-03-23T04:49:43;25.08;;;12.50;;
75655;SDS011;64252;51.094;13.714;2024-03-23T04:52:08;25.25;;;12.73;;
75655;SDS011;64252;51.094;13.714;2024-03-23T04:54:34;24.08;;;12.50;;
75655;SDS011;64252;51.094;13.714;2024-03-23T04:56:59;26.00;;;13.75;;
75655;SDS011;64252;51.094;13.714;2024-03-23T04:59:25;25.25;;;12.88;;
75655;SDS011;64252;51.094;13.714;2024-03-23T05:01:50;27.10;;;13.45;;
75655;SDS011;64252;51.094;13.714;2024-03-23T05:04:16;29.55;;;14.40;;
75655;SDS011;64252;51.094;13.714;2024-03-23T05:06:41;28.83;;;12.95;;
75655;SDS011;64252;51.094;13.714;2024-03-23T05:09:07;28.58;;;15.00;;
75655;SDS011;64252;51.094;13.714;2024-03-23T05:11:37;27.98;;;14.15;;
75655;SDS011;64252;51.094;13.714;2024-03-23T05:14:03;27.55;;;13.32;;
75655;SDS011;64252;51.094;13.714;2024-03-23T05:16:29;27.45;;;14.35;;
75655;SDS011;64252;51.094;13.714;2024-03-23T05:18:54;30.45;;;14.43;;
75655;SDS011;64252;51.094;13.714;2024-03-23T05:21:20;26.67;;;13.93;;
75655;SDS011;64252;51.094;13.714;2024-03-23T05:23:45;28.80;;;15.50;;
75655;SDS011;64252;51.094;13.714;2024-03-23T05:26:11;27.73;;;13.57;;
75655;SDS011;64252;51.094;13.714;2024-03-23T05:28:36;32.25;;;15.63;;
75655;SDS011;64252;51.094;13.714;2024-03-23T05:31:02;27.45;;;13.57;;
75655;SDS011;64252;51.094;13.714;2024-03-23T05:33:28;27.52;;;14.65;;
75655;SDS011;64252;51.094;13.714;2024-03-23T05:36:00;29.38;;;15.05;;
75655;SDS011;64252;51.094;13.714;2024-03-23T05:38:26;28.65;;;14.88;;
75655;SDS011;64252;51.094;13.714;2024-03-23T05:40:54;32.30;;;14.55;;
75655;SDS011;64252;51.094;13.714;2024-03-23T05:43:21;27.23;;;14.27;;
75655;SDS011;64252;51.094;13.714;2024-03-23T05:45:56;27.80;;;13.63;;
75655;SDS011;64252;51.094;13.714;2024-03-23T05:48:22;27.70;;;13.73;;
75655;SDS011;64252;51.094;13.714;2024-03-23T05:50:49;25.90;;;12.90;;
75655;SDS011;64252;51.094;13.714;2024-03-23T05:53:15;27.15;;;13.13;;
75655;SDS011;64252;51.094;13.714;2024-03-23T05:55:41;27.30;;;14.00;;
75655;SDS011;64252;51.094;13.714;2024-03-23T05:58:06;24.33;;;12.05;;
75655;SDS011;64252;51.094;13.714;2024-03-23T06:00:32;26.15;;;11.75;;
75655;SDS011;64252;51.094;13.714;2024-03-23T06:02:57;26.15;;;13.00;;
75655;SDS011;64252;51.094;13.714;2024-03-23T06:05:23;25.27;;;12.90;;
75655;SDS011;64252;51.094;13.714;2024-03-23T06:07:49;27.38;;;14.02;;
75655;SDS011;64252;51.094;13.714;2024-03-23T06:10:15;28.00;;;13.57;;
75655;SDS011;64252;51.094;13.714;2024-03-23T06:12:40;32.20;;;15.05;;
75655;SDS011;64252;51.094;13.714;2024-03-23T06:15:07;25.98;;;13.63;;
75655;SDS011;64252;51.094;13.714;2024-03-23T06:17:38;24.90;;;13.65;;
75655;SDS011;64252;51.094;13.714;2024-03-23T06:20:04;26.67;;;12.90;;
75655;SDS011;64252;51.094;13.714;2024-03-23T06:22:33;30.75;;;15.88;;
75655;SDS011;64252;51.094;13.714;2024-03-23T06:24:59;29.00;;;15.02;;
75655;SDS011;64252;51.094;13.714;2024-03-23T06:27:25;27.70;;;15.30;;
75655;SDS011;64252;51.094;13.714;2024-03-23T06:29:50;31.30;;;15.57;;
75655;SDS011;64252;51.094;13.714;2024-03-23T06:32:16;34.20;;;16.65;;
75655;SDS011;64252;51.094;13.714;2024-03-23T06:34:42;34.58;;;16.60;;
75655;SDS011;64252;51.094;13.714;2024-03-23T06:37:08;37.72;;;17.05;;
75655;SDS011;64252;51.094;13.714;2024-03-23T06:39:35;31.77;;;15.80;;
75655;SDS011;64252;51.094;13.714;2024-03-23T06:42:02;30.75;;;15.95;;
75655;SDS011;64252;51.094;13.714;2024-03-23T06:44:28;29.92;;;15.13;;
75655;SDS011;64252;51.094;13.714;2024-03-23T06:46:53;30.02;;;15.02;;
75655;SDS011;64252;51.094;13.714;2024-03-23T06:49:19;28.92;;;15.70;;
75655;SDS011;64252;51.094;13.714;2024-03-23T06:51:44;32.40;;;16.23;;
75655;SDS011;64252;51.094;13.714;2024-03-23T06:54:10;34.45;;;16.80;;
75655;SDS011;64252;51.094;13.714;2024-03-23T06:56:36;34.38;;;16.23;;
75655;SDS011;64252;51.094;13.714;2024-03-23T06:59:02;32.92;;;16.63;;
75655;SDS011;64252;51.094;13.714;2024-03-23T07:01:27;30.73;;;15.00;;
75655;SDS011;64252;51.094;13.714;2024-03-23T07:03:54;30.02;;;14.82;;
75655;SDS011;64252;51.094;13.714;2024-03-23T07:06:20;36.17;;;17.27;;
75655;SDS011;64252;51.094;13.714;2024-03-23T07:08:45;35.15;;;16.55;;
75655;SDS011;64252;51.094;13.714;2024-03-23T07:11:12;29.80;;;15.02;;
75655;SDS011;64252;51.094;13.714;2024-03-23T07:13:44;30.55;;;15.73;;
75655;SDS011;64252;51.094;13.714;2024-03-23T07:16:09;30.77;;;15.10;;
75655;SDS011;64252;51.094;13.714;2024-03-23T07:18:34;33.95;;;16.05;;
75655;SDS011;64252;51.094;13.714;2024-03-23T07:21:00;31.75;;;14.57;;
75655;SDS011;64252;51.094;13.714;2024-03-23T07:23:26;37.75;;;17.23;;
75655;SDS011;64252;51.094;13.714;2024-03-23T07:26:00;37.08;;;17.00;;
75655;SDS011;64252;51.094;13.714;2024-03-23T07:28:27;33.35;;;15.90;;
75655;SDS011;64252;51.094;13.714;2024-03-23T07:31:15;30.48;;;15.70;;
75655;SDS011;64252;51.094;13.714;2024-03-23T07:33:41;33.03;;;16.58;;
75655;SDS011;64252;51.094;13.714;2024-03-23T07:36:08;32.72;;;16.25;;
75655;SDS011;64252;51.094;13.714;2024-03-23T07:38:34;30.88;;;14.90;;
75655;SDS011;64252;51.094;13.714;2024-03-23T07:41:03;32.90;;;14.52;;
75655;SDS011;64252;51.094;13.714;2024-03-23T07:43:36;27.15;;;12.90;;
75655;SDS011;64252;51.094;13.714;2024-03-23T07:46:02;26.88;;;13.50;;
75655;SDS011;64252;51.094;13.714;2024-03-23T07:48:31;27.65;;;14.32;;
75655;SDS011;64252;51.094;13.714;2024-03-23T07:55:56;29.45;;;13.68;;
75655;SDS011;64252;51.094;13.714;2024-03-23T07:58:24;29.17;;;14.15;;
75655;SDS011;64252;51.094;13.714;2024-03-23T08:00:50;28.50;;;14.15;;
75655;SDS011;64252;51.094;13.714;2024-03-23T08:03:17;30.95;;;14.82;;
75655;SDS011;64252;51.094;13.714;2024-03-23T08:05:43;29.65;;;14.52;;
75655;SDS011;64252;51.094;13.714;2024-03-23T08:08:08;31.58;;;15.82;;
75655;SDS011;64252;51.094;13.714;2024-03-23T08:10:35;29.13;;;15.85;;
75655;SDS011;64252;51.094;13.714;2024-03-23T08:13:00;31.65;;;16.27;;
75655;SDS011;64252;51.094;13.714;2024-03-23T08:15:26;26.63;;;13.63;;
75655;SDS011;64252;51.094;13.714;2024-03-23T08:17:51;31.65;;;14.90;;
75655;SDS011;64252;51.094;13.714;2024-03-23T08:20:18;29.98;;;15.27;;
75655;SDS011;64252;51.094;13.714;2024-03-23T08:22:43;24.92;;;14.40;;
75655;SDS011;64252;51.094;13.714;2024-03-23T08:25:10;27.13;;;14.48;;
75655;SDS011;64252;51.094;13.714;2024-03-23T08:27:35;30.35;;;14.82;;
75655;SDS011;64252;51.094;13.714;2024-03-23T08:30:01;26.83;;;14.25;;
75655;SDS011;64252;51.094;13.714;2024-03-23T08:32:27;29.58;;;14.60;;
75655;SDS011;64252;51.094;13.714;2024-03-23T08:34:53;26.80;;;14.48;;
75655;SDS011;64252;51.094;13.714;2024-03-23T08:37:20;28.38;;;14.13;;
75655;SDS011;64252;51.094;13.714;2024-03-23T08:39:46;26.27;;;13.98;;
75655;SDS011;64252;51.094;13.714;2024-03-23T08:42:11;23.40;;;12.80;;
75655;SDS011;64252;51.094;13.714;2024-03-23T08:44:36;23.92;;;13.38;;
75655;SDS011;64252;51.094;13.714;2024-03-23T08:47:02;24.23;;;14.02;;
75655;SDS011;64252;51.094;13.714;2024-03-23T08:49:28;25.17;;;13.88;;
75655;SDS011;64252;51.094;13.714;2024-03-23T08:51:54;25.95;;;13.15;;
75655;SDS011;64252;51.094;13.714;2024-03-23T08:54:19;23.98;;;13.55;;
75655;SDS011;64252;51.094;13.714;2024-03-23T08:56:47;27.02;;;15.15;;
75655;SDS011;64252;51.094;13.714;2024-03-23T08:59:12;27.13;;;14.27;;
75655;SDS011;64252;51.094;13.714;2024-03-23T09:01:38;25.52;;;13.10;;
75655;SDS011;64252;51.094;13.714;2024-03-23T09:04:04;24.25;;;13.40;;
75655;SDS011;64252;51.094;13.714;2024-03-23T09:06:29;20.30;;;11.80;;
75655;SDS011;64252;51.094;13.714;2024-03-23T09:08:56;25.73;;;11.15;;
75655;SDS011;64252;51.094;13.714;2024-03-23T09:11:22;24.13;;;10.52;;
75655;SDS011;64252;51.094;13.714;2024-03-23T09:13:47;20.17;;;10.18;;
75655;SDS011;64252;51.094;13.714;2024-03-23T09:16:13;21.63;;;11.18;;
75655;SDS011;64252;51.094;13.714;2024-03-23T09:18:38;18.70;;;11.35;;
75655;SDS011;64252;51.094;13.714;2024-03-23T09:21:09;20.13;;;11.35;;
75655;SDS011;64252;51.094;13.714;2024-03-23T09:23:36;19.98;;;10.40;;
75655;SDS011;64252;51.094;13.714;2024-03-23T09:26:05;21.05;;;11.68;;
75655;SDS011;64252;51.094;13.714;2024-03-23T09:28:34;17.35;;;9.25;;
75655;SDS011;64252;51.094;13.714;2024-03-23T09:31:06;18.23;;;9.98;;
75655;SDS011;64252;51.094;13.714;2024-03-23T09:33:33;15.75;;;9.07;;
75655;SDS011;64252;51.094;13.714;2024-03-23T09:36:05;14.68;;;9.15;;
75655;SDS011;64252;51.094;13.714;2024-03-23T09:38:32;16.15;;;7.30;;
75655;SDS011;64252;51.094;13.714;2024-03-23T09:41:00;13.68;;;8.25;;
75655;SDS011;64252;51.094;13.714;2024-03-23T09:43:31;13.30;;;7.43;;
75655;SDS011;64252;51.094;13.714;2024-03-23T09:45:57;12.57;;;7.10;;
75655;SDS011;64252;51.094;13.714;2024-03-23T09:48:23;14.68;;;7.30;;
75655;SDS011;64252;51.094;13.714;2024-03-23T09:50:49;16.85;;;7.97;;
75655;SDS011;64252;51.094;13.714;2024-03-23T09:53:14;10.77;;;5.35;;
75655;SDS011;64252;51.094;13.714;2024-03-23T09:55:41;10.90;;;3.90;;
75655;SDS011;64252;51.094;13.714;2024-03-23T09:58:08;6.28;;;2.55;;
75655;SDS011;64252;51.094;13.714;2024-03-23T10:00:37;9.05;;;3.58;;
75655;SDS011;64252;51.094;13.714;2024-03-23T10:03:03;10.10;;;2.50;;
75655;SDS011;64252;51.094;13.714;2024-03-23T10:05:31;5.25;;;1.80;;
75655;SDS011;64252;51.094;13.714;2024-03-23T10:08:00;4.35;;;1.10;;
75655;SDS011;64252;51.094;13.714;2024-03-23T10:10:36;5.47;;;1.40;;
75655;SDS011;64252;51.094;13.714;2024-03-23T10:13:01;2.33;;;0.65;;
75655;SDS011;64252;51.094;13.714;2024-03-23T10:15:27;2.47;;;0.70;;
75655;SDS011;64252;51.094;13.714;2024-03-23T10:17:52;2.97;;;0.70;;
75655;SDS011;64252;51.094;13.714;2024-03-23T10:20:21;4.10;;;1.33;;
75655;SDS011;64252;51.094;13.714;2024-03-23T10:22:48;2.08;;;0.70;;
75655;SDS011;64252;51.094;13.714;2024-03-23T10:25:15;1.75;;;0.50;;
75655;SDS011;64252;51.094;13.714;2024-03-23T10:27:41;2.47;;;0.52;;
75655;SDS011;64252;51.094;13.714;2024-03-23T10:30:12;0.47;;;0.15;;
75655;SDS011;64252;51.094;13.714;2024-03-23T10:32:40;1.50;;;0.40;;
75655;SDS011;64252;51.094;13.714;2024-03-23T10:35:18;1.02;;;0.30;;
75655;SDS011;64252;51.094;13.714;2024-03-23T10:37:45;2.80;;;0.40;;
75655;SDS011;64252;51.094;13.714;2024-03-23T10:40:17;2.15;;;0.50;;
75655;SDS011;64252;51.094;13.714;2024-03-23T10:42:43;1.38;;;0.35;;
75655;SDS011;64252;51.094;13.714;2024-03-23T10:45:10;0.98;;;0.30;;
75655;SDS011;64252;51.094;13.714;2024-03-23T10:47:36;1.38;;;0.40;;
75655;SDS011;64252;51.094;13.714;2024-03-23T10:50:05;0.63;;;0.20;;
75655;SDS011;64252;51.094;13.714;2024-03-23T10:52:32;3.60;;;1.25;;
75655;SDS011;64252;51.094;13.714;2024-03-23T10:54:58;0.65;;;0.30;;
75655;SDS011;64252;51.094;13.714;2024-03-23T10:57:29;2.65;;;0.60;;
75655;SDS011;64252;51.094;13.714;2024-03-23T11:00:02;2.03;;;0.57;;
75655;SDS011;64252;51.094;13.714;2024-03-23T11:02:28;1.27;;;0.50;;
75655;SDS011;64252;51.094;13.714;2024-03-23T11:04:54;1.92;;;0.60;;
75655;SDS011;64252;51.094;13.714;2024-03-23T11:09:49;1.55;;;0.50;;
75655;SDS011;64252;51.094;13.714;2024-03-23T11:12:25;1.58;;;0.40;;
75655;SDS011;64252;51.094;13.714;2024-03-23T11:14:52;1.73;;;0.60;;
75655;SDS011;64252;51.094;13.714;2024-03-23T11:17:19;1.88;;;0.50;;
75655;SDS011;64252;51.094;13.714;2024-03-23T11:19:58;1.30;;;0.38;;
75655;SDS011;64252;51.094;13.714;2024-03-23T11:25:03;1.33;;;0.38;;
75655;SDS011;64252;51.094;13.714;2024-03-23T11:27:42;2.45;;;0.73;;
75655;SDS011;64252;51.094;13.714;2024-03-23T11:30:12;2.05;;;0.47;;
75655;SDS011;64252;51.094;13.714;2024-03-23T11:32:51;1.38;;;0.50;;
75655;SDS011;64252;51.094;13.714;2024-03-23T11:35:24;0.77;;;0.30;;
75655;SDS011;64252;51.094;13.714;2024-03-23T11:38:03;3.67;;;0.50;;
75655;SDS011;64252;51.094;13.714;2024-03-23T11:40:29;0.90;;;0.30;;
75655;SDS011;64252;51.094;13.714;2024-03-23T11:42:58;0.93;;;0.28;;
75655;SDS011;64252;51.094;13.714;2024-03-23T11:45:24;1.50;;;0.57;;
75655;SDS011;64252;51.094;13.714;2024-03-23T11:48:12;1.15;;;0.30;;
75655;SDS011;64252;51.094;13.714;2024-03-23T11:50:43;1.40;;;0.40;;
75655;SDS011;64252;51.094;13.714;2024-03-23T11:53:20;2.33;;;0.40;;
75655;SDS011;64252;51.094;13.714;2024-03-23T11:58:21;1.23;;;0.40;;
75655;SDS011;64252;51.094;13.714;2024-03-23T12:00:49;2.75;;;0.90;;
75655;SDS011;64252;51.094;13.714;2024-03-23T12:03:17;1.35;;;0.43;;
75655;SDS011;64252;51.094;13.714;2024-03-23T12:05:47;2.30;;;0.70;;
75655;SDS011;64252;51.094;13.714;2024-03-23T12:11:05;3.00;;;0.80;;
75655;SDS011;64252;51.094;13.714;2024-03-23T12:13:40;0.85;;;0.20;;
75655;SDS011;64252;51.094;13.714;2024-03-23T12:16:15;1.25;;;0.40;;
75655;SDS011;64252;51.094;13.714;2024-03-23T12:18:52;2.25;;;0.80;;
75655;SDS011;64252;51.094;13.714;2024-03-23T12:21:18;2.75;;;0.98;;
75655;SDS011;64252;51.094;13.714;2024-03-23T12:23:44;3.53;;;1.58;;
75655;SDS011;64252;51.094;13.714;2024-03-23T12:26:11;2.13;;;0.57;;
75655;SDS011;64252;51.094;13.714;2024-03-23T12:28:37;3.05;;;1.38;;
75655;SDS011;64252;51.094;13.714;2024-03-23T12:31:02;3.58;;;1.60;;
75655;SDS011;64252;51.094;13.714;2024-03-23T12:33:28;13.43;;;6.72;;
75655;SDS011;64252;51.094;13.714;2024-03-23T12:35:54;12.73;;;3.85;;
75655;SDS011;64252;51.094;13.714;2024-03-23T12:38:19;14.90;;;6.80;;
75655;SDS011;64252;51.094;13.714;2024-03-23T12:40:48;9.27;;;4.13;;
75655;SDS011;64252;51.094;13.714;2024-03-23T12:43:15;2.67;;;1.25;;
75655;SDS011;64252;51.094;13.714;2024-03-23T12:45:41;3.25;;;1.33;;
75655;SDS011;64252;51.094;13.714;2024-03-23T12:48:11;4.00;;;1.20;;
75655;SDS011;64252;51.094;13.714;2024-03-23T12:50:36;2.28;;;0.85;;
75655;SDS011;64252;51.094;13.714;2024-03-23T12:53:02;2.88;;;1.10;;
75655;SDS011;64252;51.094;13.714;2024-03-23T12:55:27;8.65;;;4.13;;
75655;SDS011;64252;51.094;13.714;2024-03-23T12:57:53;3.78;;;1.70;;
75655;SDS011;64252;51.094;13.714;2024-03-23T13:00:19;4.53;;;2.03;;
75655;SDS011;64252;51.094;13.714;2024-03-23T13:02:45;3.25;;;1.60;;
75655;SDS011;64252;51.094;13.714;2024-03-23T13:05:10;4.63;;;2.20;;
75655;SDS011;64252;51.094;13.714;2024-03-23T13:07:36;4.65;;;2.85;;
75655;SDS011;64252;51.094;13.714;2024-03-23T13:10:02;4.28;;;2.10;;
75655;SDS011;64252;51.094;13.714;2024-03-23T13:12:29;5.10;;;2.67;;
75655;SDS011;64252;51.094;13.714;2024-03-23T13:14:54;3.28;;;1.73;;
75655;SDS011;64252;51.094;13.714;2024-03-23T13:17:20;3.22;;;1.40;;
75655;SDS011;64252;51.094;13.714;2024-03-23T13:19:45;3.40;;;1.55;;
75655;SDS011;64252;51.094;13.714;2024-03-23T13:22:11;4.85;;;2.00;;
75655;SDS011;64252;51.094;13.714;2024-03-23T13:24:37;6.50;;;2.22;;
75655;SDS011;64252;51.094;13.714;2024-03-23T13:27:03;7.22;;;2.20;;
75655;SDS011;64252;51.094;13.714;2024-03-23T13:29:33;6.97;;;1.70;;
75655;SDS011;64252;51.094;13.714;2024-03-23T13:32:05;4.03;;;1.10;;
75655;SDS011;64252;51.094;13.714;2024-03-23T13:34:31;3.22;;;1.00;;
75655;SDS011;64252;51.094;13.714;2024-03-23T13:36:58;2.60;;;0.90;;
75655;SDS011;64252;51.094;13.714;2024-03-23T13:39:24;3.67;;;1.13;;
75655;SDS011;64252;51.094;13.714;2024-03-23T13:41:50;6.97;;;1.60;;
75655;SDS011;64252;51.094;13.714;2024-03-23T13:44:16;5.15;;;1.10;;
75655;SDS011;64252;51.094;13.714;2024-03-23T13:46:42;7.10;;;1.50;;
75655;SDS011;64252;51.094;13.714;2024-03-23T13:51:57;4.45;;;1.42;;
75655;SDS011;64252;51.094;13.714;2024-03-23T13:54:23;5.90;;;1.70;;
75655;SDS011;64252;51.094;13.714;2024-03-23T13:56:50;4.85;;;1.30;;
75655;SDS011;64252;51.094;13.714;2024-03-23T13:59:16;5.63;;;1.63;;
75655;SDS011;64252;51.094;13.714;2024-03-23T14:01:42;4.78;;;1.13;;
75655;SDS011;64252;51.094;13.714;2024-03-23T14:04:08;5.15;;;1.70;;
75655;SDS011;64252;51.094;13.714;2024-03-23T14:06:33;4.60;;;1.20;;
75655;SDS011;64252;51.094;13.714;2024-03-23T14:08:59;5.68;;;1.50;;
75655;SDS011;64252;51.094;13.714;2024-03-23T14:11:25;6.60;;;1.75;;
75655;SDS011;64252;51.094;13.714;2024-03-23T14:13:51;5.90;;;1.38;;
75655;SDS011;64252;51.094;13.714;2024-03-23T14:16:18;4.90;;;1.00;;
75655;SDS011;64252;51.094;13.714;2024-03-23T14:18:45;4.38;;;1.15;;
75655;SDS011;64252;51.094;13.714;2024-03-23T14:21:13;6.00;;;1.02;;
75655;SDS011;64252;51.094;13.714;2024-03-23T14:23:39;3.22;;;0.90;;
75655;SDS011;64252;51.094;13.714;2024-03-23T14:26:06;6.70;;;1.40;;
75655;SDS011;64252;51.094;13.714;2024-03-23T14:28:36;3.30;;;0.90;;
75655;SDS011;64252;51.094;13.714;2024-03-23T14:31:01;4.95;;;1.02;;
75655;SDS011;64252;51.094;13.714;2024-03-23T14:33:36;6.22;;;0.82;;
75655;SDS011;64252;51.094;13.714;2024-03-23T14:36:03;5.10;;;0.80;;
75655;SDS011;64252;51.094;13.714;2024-03-23T14:38:29;4.68;;;0.65;;
75655;SDS011;64252;51.094;13.714;2024-03-23T14:40:57;6.30;;;1.10;;
75655;SDS011;64252;51.094;13.714;2024-03-23T14:43:27;4.15;;;1.00;;
75655;SDS011;64252;51.094;13.714;2024-03-23T14:48:41;5.78;;;0.90;;
75655;SDS011;64252;51.094;13.714;2024-03-23T14:51:09;4.22;;;1.15;;
75655;SDS011;64252;51.094;13.714;2024-03-23T14:53:45;4.43;;;0.95;;
75655;SDS011;64252;51.094;13.714;2024-03-23T14:56:11;4.55;;;1.13;;
75655;SDS011;64252;51.094;13.714;2024-03-23T14:58:41;4.45;;;1.38;;
75655;SDS011;64252;51.094;13.714;2024-03-23T15:01:07;2.67;;;0.77;;
75655;SDS011;64252;51.094;13.714;2024-03-23T15:03:37;8.15;;;1.30;;
75655;SDS011;64252;51.094;13.714;2024-03-23T15:06:04;6.57;;;1.23;;
75655;SDS011;64252;51.094;13.714;2024-03-23T15:08:31;5.45;;;1.20;;
75655;SDS011;64252;51.094;13.714;2024-03-23T15:11:00;4.35;;;1.00;;
75655;SDS011;64252;51.094;13.714;2024-03-23T15:13:31;4.25;;;0.88;;
75655;SDS011;64252;51.094;13.714;2024-03-23T15:16:00;2.97;;;1.08;;
75655;SDS011;64252;51.094;13.714;2024-03-23T15:18:27;5.88;;;1.23;;
75655;SDS011;64252;51.094;13.714;2024-03-23T15:20:55;5.47;;;1.90;;
75655;SDS011;64252;51.094;13.714;2024-03-23T15:23:24;4.32;;;1.05;;
75655;SDS011;64252;51.094;13.714;2024-03-23T15:25:59;5.18;;;1.40;;
75655;SDS011;64252;51.094;13.714;2024-03-23T15:28:28;5.15;;;1.30;;
75655;SDS011;64252;51.094;13.714;2024-03-23T15:31:07;5.93;;;1.33;;
75655;SDS011;64252;51.094;13.714;2024-03-23T15:33:34;6.43;;;1.50;;
75655;SDS011;64252;51.094;13.714;2024-03-23T15:36:03;5.13;;;1.70;;